Main page
METAR-TAF:

METAR-TAF

Airports :

Mitiga International Airport

Tripoli, Libya

latitude: 32-54N, longitude: 13-17E, elevation: 11 m

Current weather observation

The report was made 22 hours and 57 minutes ago, at 01:55 UTC
Wind 11 kt from the West/Southwest
Temperature 11°C
Humidity 50%
Pressure 1015 hPa
Visibility: 7000 m
Clear sky

METAR: HLLM 150155Z 24011KT 7000 SKC 11/01 Q1015

Time: 02:52 (00:52 UTC)

Forecast

The report was made 13 hours and 52 minutes ago, at 11:00 UTC
Forecast valid from 15 at 12 UTC to 16 at 12 UTC
Wind 12 kt from the North/Northwest
Visibility 10 km or more
Few clouds at a height of 2500 ft
Becoming
from 15 at 21 UTC to 15 at 23 UTC
Wind 2 kt from variable directions
Visibility: 8000 m
Probability 40%
from 16 at 00 UTC to 16 at 06 UTC
Visibility: 3000 m
mist
Becoming
from 16 at 07 UTC to 16 at 09 UTC
Wind 10 kt from the Southwest

TAF: HLLM 151100Z 1512/1612 33012KT 9999 FEW025 BECMG 1521/1523 VRB02KT 8000 NSC PROB40TEMPO 1600/1606 3000 BR BECMG 1607/1609 23010KT

Weather observations and forecasts of more than 4000 airports (METAR and TAF reports).

The available stations are represented by yellow and red dots on the map.

Hover mouse over dot to see the name of the station.

Then click to see weather observations and forecasts.

To change the map : click on the green buttons with a black cross to zoom in, on the green button with a dash to zoom out, or on the green arrows for adjacent maps.


METAR-TAF: